sensor_id;sensor_type;location;lat;lon;timestamp;P1;durP1;ratioP1;P2;durP2;ratioP2
26946;SDS011;14501;52.282;10.560;2023-06-14T00:00:18;6.70;;;2.83;;
26946;SDS011;14501;52.282;10.560;2023-06-14T00:02:45;4.15;;;2.60;;
26946;SDS011;14501;52.282;10.560;2023-06-14T00:05:10;3.78;;;2.97;;
26946;SDS011;14501;52.282;10.560;2023-06-14T00:07:37;3.92;;;2.78;;
26946;SDS011;14501;52.282;10.560;2023-06-14T00:10:08;4.65;;;2.67;;
26946;SDS011;14501;52.282;10.560;2023-06-14T00:12:34;5.25;;;2.60;;
26946;SDS011;14501;52.282;10.560;2023-06-14T00:15:01;2.60;;;2.38;;
26946;SDS011;14501;52.282;10.560;2023-06-14T00:17:27;4.57;;;2.58;;
26946;SDS011;14501;52.282;10.560;2023-06-14T00:19:55;9.32;;;3.00;;
26946;SDS011;14501;52.282;10.560;2023-06-14T00:22:22;4.03;;;2.70;;
26946;SDS011;14501;52.282;10.560;2023-06-14T00:24:49;4.82;;;2.58;;
26946;SDS011;14501;52.282;10.560;2023-06-14T00:27:15;6.47;;;2.78;;
26946;SDS011;14501;52.282;10.560;2023-06-14T00:29:41;3.33;;;2.60;;
26946;SDS011;14501;52.282;10.560;2023-06-14T00:32:07;3.10;;;2.60;;
26946;SDS011;14501;52.282;10.560;2023-06-14T00:34:33;2.60;;;2.40;;
26946;SDS011;14501;52.282;10.560;2023-06-14T00:36:59;4.63;;;2.33;;
26946;SDS011;14501;52.282;10.560;2023-06-14T00:39:24;8.73;;;2.90;;
26946;SDS011;14501;52.282;10.560;2023-06-14T00:41:50;2.75;;;2.45;;
26946;SDS011;14501;52.282;10.560;2023-06-14T00:44:16;8.15;;;2.22;;
26946;SDS011;14501;52.282;10.560;2023-06-14T00:46:42;8.57;;;2.83;;
26946;SDS011;14501;52.282;10.560;2023-06-14T00:49:10;3.47;;;2.40;;
26946;SDS011;14501;52.282;10.560;2023-06-14T00:51:39;3.55;;;2.85;;
26946;SDS011;14501;52.282;10.560;2023-06-14T00:54:04;5.25;;;2.75;;
26946;SDS011;14501;52.282;10.560;2023-06-14T00:56:30;7.40;;;2.80;;
26946;SDS011;14501;52.282;10.560;2023-06-14T00:58:56;3.28;;;2.60;;
26946;SDS011;14501;52.282;10.560;2023-06-14T01:01:22;3.00;;;2.35;;
26946;SDS011;14501;52.282;10.560;2023-06-14T01:03:49;2.97;;;2.60;;
26946;SDS011;14501;52.282;10.560;2023-06-14T01:09:20;4.82;;;2.47;;
26946;SDS011;14501;52.282;10.560;2023-06-14T01:14:31;3.58;;;2.35;;
26946;SDS011;14501;52.282;10.560;2023-06-14T01:16:59;4.45;;;2.60;;
26946;SDS011;14501;52.282;10.560;2023-06-14T01:19:26;5.72;;;2.80;;
26946;SDS011;14501;52.282;10.560;2023-06-14T01:21:53;5.13;;;3.03;;
26946;SDS011;14501;52.282;10.560;2023-06-14T01:24:20;7.05;;;2.60;;
26946;SDS011;14501;52.282;10.560;2023-06-14T01:26:50;2.72;;;2.50;;
26946;SDS011;14501;52.282;10.560;2023-06-14T01:29:21;6.88;;;2.50;;
26946;SDS011;14501;52.282;10.560;2023-06-14T01:31:48;4.40;;;2.88;;
26946;SDS011;14501;52.282;10.560;2023-06-14T01:34:15;7.45;;;2.55;;
26946;SDS011;14501;52.282;10.560;2023-06-14T01:36:41;4.35;;;2.67;;
26946;SDS011;14501;52.282;10.560;2023-06-14T01:39:10;4.10;;;2.70;;
26946;SDS011;14501;52.282;10.560;2023-06-14T01:41:38;5.93;;;3.05;;
26946;SDS011;14501;52.282;10.560;2023-06-14T01:44:05;4.50;;;3.08;;
26946;SDS011;14501;52.282;10.560;2023-06-14T01:46:31;6.05;;;2.80;;
26946;SDS011;14501;52.282;10.560;2023-06-14T01:48:57;5.18;;;2.83;;
26946;SDS011;14501;52.282;10.560;2023-06-14T01:51:24;5.07;;;3.40;;
26946;SDS011;14501;52.282;10.560;2023-06-14T01:53:49;3.97;;;2.65;;
26946;SDS011;14501;52.282;10.560;2023-06-14T01:56:15;4.07;;;2.75;;
26946;SDS011;14501;52.282;10.560;2023-06-14T01:58:41;4.55;;;2.95;;
26946;SDS011;14501;52.282;10.560;2023-06-14T02:01:07;4.28;;;3.35;;
26946;SDS011;14501;52.282;10.560;2023-06-14T02:03:33;6.03;;;3.05;;
26946;SDS011;14501;52.282;10.560;2023-06-14T02:05:59;5.13;;;3.08;;
26946;SDS011;14501;52.282;10.560;2023-06-14T02:08:24;6.00;;;3.08;;
26946;SDS011;14501;52.282;10.560;2023-06-14T02:10:50;5.10;;;3.17;;
26946;SDS011;14501;52.282;10.560;2023-06-14T02:13:16;5.80;;;3.00;;
26946;SDS011;14501;52.282;10.560;2023-06-14T02:15:42;5.13;;;2.80;;
26946;SDS011;14501;52.282;10.560;2023-06-14T02:18:09;5.00;;;2.80;;
26946;SDS011;14501;52.282;10.560;2023-06-14T02:20:35;3.22;;;2.90;;
26946;SDS011;14501;52.282;10.560;2023-06-14T02:23:01;3.20;;;2.53;;
26946;SDS011;14501;52.282;10.560;2023-06-14T02:25:26;6.15;;;2.88;;
26946;SDS011;14501;52.282;10.560;2023-06-14T02:27:55;4.22;;;3.08;;
26946;SDS011;14501;52.282;10.560;2023-06-14T02:30:21;7.75;;;3.30;;
26946;SDS011;14501;52.282;10.560;2023-06-14T02:32:47;3.40;;;3.10;;
26946;SDS011;14501;52.282;10.560;2023-06-14T02:35:13;8.93;;;3.10;;
26946;SDS011;14501;52.282;10.560;2023-06-14T02:37:39;5.78;;;3.22;;
26946;SDS011;14501;52.282;10.560;2023-06-14T02:40:05;3.45;;;2.95;;
26946;SDS011;14501;52.282;10.560;2023-06-14T02:42:31;5.55;;;2.75;;
26946;SDS011;14501;52.282;10.560;2023-06-14T02:44:57;7.75;;;2.67;;
26946;SDS011;14501;52.282;10.560;2023-06-14T02:47:23;7.10;;;2.90;;
26946;SDS011;14501;52.282;10.560;2023-06-14T02:49:49;4.43;;;2.75;;
26946;SDS011;14501;52.282;10.560;2023-06-14T02:52:15;6.70;;;3.10;;
26946;SDS011;14501;52.282;10.560;2023-06-14T02:54:41;3.75;;;3.08;;
26946;SDS011;14501;52.282;10.560;2023-06-14T02:57:07;4.68;;;3.13;;
26946;SDS011;14501;52.282;10.560;2023-06-14T02:59:33;3.85;;;2.80;;
26946;SDS011;14501;52.282;10.560;2023-06-14T03:01:59;3.58;;;3.03;;
26946;SDS011;14501;52.282;10.560;2023-06-14T03:04:24;7.00;;;2.75;;
26946;SDS011;14501;52.282;10.560;2023-06-14T03:06:51;4.32;;;2.75;;
26946;SDS011;14501;52.282;10.560;2023-06-14T03:09:18;3.72;;;2.85;;
26946;SDS011;14501;52.282;10.560;2023-06-14T03:11:44;3.63;;;2.58;;
26946;SDS011;14501;52.282;10.560;2023-06-14T03:14:10;5.40;;;3.30;;
26946;SDS011;14501;52.282;10.560;2023-06-14T03:16:36;7.32;;;2.80;;
26946;SDS011;14501;52.282;10.560;2023-06-14T03:19:02;3.95;;;3.25;;
26946;SDS011;14501;52.282;10.560;2023-06-14T03:21:28;4.03;;;2.33;;
26946;SDS011;14501;52.282;10.560;2023-06-14T03:23:53;3.70;;;2.85;;
26946;SDS011;14501;52.282;10.560;2023-06-14T03:26:19;13.10;;;2.88;;
26946;SDS011;14501;52.282;10.560;2023-06-14T03:28:45;6.90;;;2.88;;
26946;SDS011;14501;52.282;10.560;2023-06-14T03:31:14;3.85;;;2.40;;
26946;SDS011;14501;52.282;10.560;2023-06-14T03:33:41;5.05;;;2.72;;
26946;SDS011;14501;52.282;10.560;2023-06-14T03:36:07;5.07;;;2.45;;
26946;SDS011;14501;52.282;10.560;2023-06-14T03:38:33;2.88;;;2.58;;
26946;SDS011;14501;52.282;10.560;2023-06-14T03:40:59;4.65;;;2.25;;
26946;SDS011;14501;52.282;10.560;2023-06-14T03:43:25;6.85;;;3.20;;
26946;SDS011;14501;52.282;10.560;2023-06-14T03:45:51;3.90;;;2.55;;
26946;SDS011;14501;52.282;10.560;2023-06-14T03:48:16;4.80;;;2.40;;
26946;SDS011;14501;52.282;10.560;2023-06-14T03:50:42;2.58;;;2.38;;
26946;SDS011;14501;52.282;10.560;2023-06-14T03:53:08;3.97;;;2.60;;
26946;SDS011;14501;52.282;10.560;2023-06-14T03:55:34;6.47;;;2.47;;
26946;SDS011;14501;52.282;10.560;2023-06-14T03:58:00;3.08;;;2.50;;
26946;SDS011;14501;52.282;10.560;2023-06-14T04:00:25;2.90;;;2.60;;
26946;SDS011;14501;52.282;10.560;2023-06-14T04:02:51;4.97;;;2.63;;
26946;SDS011;14501;52.282;10.560;2023-06-14T04:05:17;4.82;;;2.25;;
26946;SDS011;14501;52.282;10.560;2023-06-14T04:07:44;5.25;;;2.72;;
26946;SDS011;14501;52.282;10.560;2023-06-14T04:10:13;3.05;;;2.50;;
26946;SDS011;14501;52.282;10.560;2023-06-14T04:12:40;3.17;;;2.72;;
26946;SDS011;14501;52.282;10.560;2023-06-14T04:15:07;5.03;;;2.35;;
26946;SDS011;14501;52.282;10.560;2023-06-14T04:17:36;8.30;;;2.53;;
26946;SDS011;14501;52.282;10.560;2023-06-14T04:20:03;3.72;;;2.70;;
26946;SDS011;14501;52.282;10.560;2023-06-14T04:22:30;7.32;;;2.42;;
26946;SDS011;14501;52.282;10.560;2023-06-14T04:24:56;4.50;;;2.40;;
26946;SDS011;14501;52.282;10.560;2023-06-14T04:27:23;4.70;;;2.60;;
26946;SDS011;14501;52.282;10.560;2023-06-14T04:29:53;3.42;;;2.70;;
26946;SDS011;14501;52.282;10.560;2023-06-14T04:32:24;4.07;;;2.78;;
26946;SDS011;14501;52.282;10.560;2023-06-14T04:34:54;7.72;;;2.47;;
26946;SDS011;14501;52.282;10.560;2023-06-14T04:37:20;4.75;;;2.60;;
26946;SDS011;14501;52.282;10.560;2023-06-14T04:39:47;6.65;;;2.97;;
26946;SDS011;14501;52.282;10.560;2023-06-14T04:42:13;5.57;;;2.50;;
26946;SDS011;14501;52.282;10.560;2023-06-14T04:44:42;3.17;;;2.47;;
26946;SDS011;14501;52.282;10.560;2023-06-14T04:47:09;5.80;;;2.63;;
26946;SDS011;14501;52.282;10.560;2023-06-14T04:49:35;3.70;;;2.70;;
26946;SDS011;14501;52.282;10.560;2023-06-14T04:52:00;3.20;;;2.35;;
26946;SDS011;14501;52.282;10.560;2023-06-14T04:54:27;5.75;;;2.40;;
26946;SDS011;14501;52.282;10.560;2023-06-14T04:56:56;4.95;;;2.70;;
26946;SDS011;14501;52.282;10.560;2023-06-14T04:59:22;4.95;;;2.20;;
26946;SDS011;14501;52.282;10.560;2023-06-14T05:01:48;4.20;;;2.47;;
26946;SDS011;14501;52.282;10.560;2023-06-14T05:04:15;7.50;;;2.78;;
26946;SDS011;14501;52.282;10.560;2023-06-14T05:06:44;8.07;;;3.55;;
26946;SDS011;14501;52.282;10.560;2023-06-14T05:09:10;5.30;;;2.45;;
26946;SDS011;14501;52.282;10.560;2023-06-14T05:11:37;2.90;;;2.55;;
26946;SDS011;14501;52.282;10.560;2023-06-14T05:14:02;3.85;;;2.60;;
26946;SDS011;14501;52.282;10.560;2023-06-14T05:16:28;5.72;;;2.40;;
26946;SDS011;14501;52.282;10.560;2023-06-14T05:18:54;5.82;;;2.95;;
26946;SDS011;14501;52.282;10.560;2023-06-14T05:21:20;2.88;;;2.42;;
26946;SDS011;14501;52.282;10.560;2023-06-14T05:23:45;4.18;;;2.75;;
26946;SDS011;14501;52.282;10.560;2023-06-14T05:26:11;4.90;;;2.97;;
26946;SDS011;14501;52.282;10.560;2023-06-14T05:28:37;6.13;;;2.75;;
26946;SDS011;14501;52.282;10.560;2023-06-14T05:31:02;4.63;;;2.50;;
26946;SDS011;14501;52.282;10.560;2023-06-14T05:33:28;6.93;;;2.92;;
26946;SDS011;14501;52.282;10.560;2023-06-14T05:35:54;5.60;;;3.00;;
26946;SDS011;14501;52.282;10.560;2023-06-14T05:38:20;3.50;;;2.22;;
26946;SDS011;14501;52.282;10.560;2023-06-14T05:40:45;3.55;;;2.80;;
26946;SDS011;14501;52.282;10.560;2023-06-14T05:43:11;5.55;;;2.63;;
26946;SDS011;14501;52.282;10.560;2023-06-14T05:45:37;4.85;;;3.05;;
26946;SDS011;14501;52.282;10.560;2023-06-14T05:48:02;5.15;;;2.63;;
26946;SDS011;14501;52.282;10.560;2023-06-14T05:50:28;7.10;;;3.33;;
26946;SDS011;14501;52.282;10.560;2023-06-14T05:52:54;6.35;;;2.58;;
26946;SDS011;14501;52.282;10.560;2023-06-14T05:55:19;2.90;;;2.60;;
26946;SDS011;14501;52.282;10.560;2023-06-14T05:57:45;3.88;;;2.80;;
26946;SDS011;14501;52.282;10.560;2023-06-14T06:00:12;4.80;;;2.40;;
26946;SDS011;14501;52.282;10.560;2023-06-14T06:02:43;2.70;;;2.40;;
26946;SDS011;14501;52.282;10.560;2023-06-14T06:05:10;5.18;;;2.38;;
26946;SDS011;14501;52.282;10.560;2023-06-14T06:07:37;3.55;;;2.30;;
26946;SDS011;14501;52.282;10.560;2023-06-14T06:10:05;2.55;;;2.35;;
26946;SDS011;14501;52.282;10.560;2023-06-14T06:12:31;3.67;;;2.72;;
26946;SDS011;14501;52.282;10.560;2023-06-14T06:14:57;6.68;;;2.30;;
26946;SDS011;14501;52.282;10.560;2023-06-14T06:17:24;8.13;;;2.50;;
26946;SDS011;14501;52.282;10.560;2023-06-14T06:19:51;4.82;;;2.80;;
26946;SDS011;14501;52.282;10.560;2023-06-14T06:22:16;2.55;;;2.33;;
26946;SDS011;14501;52.282;10.560;2023-06-14T06:24:42;3.03;;;2.50;;
26946;SDS011;14501;52.282;10.560;2023-06-14T06:27:08;4.55;;;2.53;;
26946;SDS011;14501;52.282;10.560;2023-06-14T06:29:34;4.38;;;2.45;;
26946;SDS011;14501;52.282;10.560;2023-06-14T06:32:00;3.53;;;2.40;;
26946;SDS011;14501;52.282;10.560;2023-06-14T06:34:26;4.45;;;2.70;;
26946;SDS011;14501;52.282;10.560;2023-06-14T06:36:52;4.72;;;2.50;;
26946;SDS011;14501;52.282;10.560;2023-06-14T06:39:18;4.97;;;2.35;;
26946;SDS011;14501;52.282;10.560;2023-06-14T06:41:44;3.05;;;2.35;;
26946;SDS011;14501;52.282;10.560;2023-06-14T06:44:09;3.88;;;2.65;;
26946;SDS011;14501;52.282;10.560;2023-06-14T06:46:35;4.03;;;2.40;;
26946;SDS011;14501;52.282;10.560;2023-06-14T06:49:09;4.53;;;2.60;;
26946;SDS011;14501;52.282;10.560;2023-06-14T06:51:36;5.22;;;2.50;;
26946;SDS011;14501;52.282;10.560;2023-06-14T06:54:02;2.90;;;2.33;;
26946;SDS011;14501;52.282;10.560;2023-06-14T06:56:28;5.13;;;2.70;;
26946;SDS011;14501;52.282;10.560;2023-06-14T06:58:54;3.75;;;2.72;;
26946;SDS011;14501;52.282;10.560;2023-06-14T07:01:19;3.80;;;2.70;;
26946;SDS011;14501;52.282;10.560;2023-06-14T07:03:45;3.50;;;2.25;;
26946;SDS011;14501;52.282;10.560;2023-06-14T07:06:11;3.47;;;2.05;;
26946;SDS011;14501;52.282;10.560;2023-06-14T07:08:37;2.53;;;2.10;;
26946;SDS011;14501;52.282;10.560;2023-06-14T07:11:03;3.92;;;2.67;;
26946;SDS011;14501;52.282;10.560;2023-06-14T07:13:30;3.22;;;2.05;;
26946;SDS011;14501;52.282;10.560;2023-06-14T07:15:58;4.55;;;1.95;;
26946;SDS011;14501;52.282;10.560;2023-06-14T07:18:25;2.95;;;2.10;;
26946;SDS011;14501;52.282;10.560;2023-06-14T07:20:51;3.80;;;2.30;;
26946;SDS011;14501;52.282;10.560;2023-06-14T07:23:18;5.28;;;2.10;;
26946;SDS011;14501;52.282;10.560;2023-06-14T07:25:45;3.35;;;2.10;;
26946;SDS011;14501;52.282;10.560;2023-06-14T07:28:11;3.03;;;2.00;;
26946;SDS011;14501;52.282;10.560;2023-06-14T07:30:36;2.60;;;2.22;;
26946;SDS011;14501;52.282;10.560;2023-06-14T07:33:02;4.10;;;2.10;;
26946;SDS011;14501;52.282;10.560;2023-06-14T07:35:27;4.22;;;1.80;;
26946;SDS011;14501;52.282;10.560;2023-06-14T07:37:53;2.10;;;2.00;;
26946;SDS011;14501;52.282;10.560;2023-06-14T07:40:19;2.33;;;2.13;;
26946;SDS011;14501;52.282;10.560;2023-06-14T07:42:44;4.63;;;2.17;;
26946;SDS011;14501;52.282;10.560;2023-06-14T07:45:11;5.07;;;2.42;;
26946;SDS011;14501;52.282;10.560;2023-06-14T07:47:38;5.65;;;2.38;;
26946;SDS011;14501;52.282;10.560;2023-06-14T07:50:04;4.93;;;2.00;;
26946;SDS011;14501;52.282;10.560;2023-06-14T07:52:30;3.70;;;1.88;;
26946;SDS011;14501;52.282;10.560;2023-06-14T07:54:56;6.90;;;1.85;;
26946;SDS011;14501;52.282;10.560;2023-06-14T07:57:22;2.30;;;2.10;;
26946;SDS011;14501;52.282;10.560;2023-06-14T07:59:47;2.35;;;1.83;;
26946;SDS011;14501;52.282;10.560;2023-06-14T08:02:13;1.90;;;1.80;;
26946;SDS011;14501;52.282;10.560;2023-06-14T08:04:39;3.25;;;1.70;;
26946;SDS011;14501;52.282;10.560;2023-06-14T08:07:05;2.20;;;1.80;;
26946;SDS011;14501;52.282;10.560;2023-06-14T08:09:31;2.28;;;1.77;;
26946;SDS011;14501;52.282;10.560;2023-06-14T08:11:56;2.53;;;2.08;;
26946;SDS011;14501;52.282;10.560;2023-06-14T08:14:22;2.13;;;1.92;;
26946;SDS011;14501;52.282;10.560;2023-06-14T08:16:48;2.38;;;1.67;;
26946;SDS011;14501;52.282;10.560;2023-06-14T08:19:14;3.22;;;2.00;;
26946;SDS011;14501;52.282;10.560;2023-06-14T08:21:41;2.00;;;1.80;;
26946;SDS011;14501;52.282;10.560;2023-06-14T08:24:08;2.10;;;1.90;;
26946;SDS011;14501;52.282;10.560;2023-06-14T08:26:37;2.38;;;1.77;;
26946;SDS011;14501;52.282;10.560;2023-06-14T08:29:03;4.95;;;1.95;;
26946;SDS011;14501;52.282;10.560;2023-06-14T08:31:29;6.53;;;1.70;;
26946;SDS011;14501;52.282;10.560;2023-06-14T08:33:56;3.50;;;1.98;;
26946;SDS011;14501;52.282;10.560;2023-06-14T08:36:22;3.22;;;1.65;;
26946;SDS011;14501;52.282;10.560;2023-06-14T08:38:48;3.70;;;1.88;;
26946;SDS011;14501;52.282;10.560;2023-06-14T08:41:13;3.30;;;1.90;;
26946;SDS011;14501;52.282;10.560;2023-06-14T08:43:47;1.95;;;1.77;;
26946;SDS011;14501;52.282;10.560;2023-06-14T08:46:13;1.50;;;1.40;;
26946;SDS011;14501;52.282;10.560;2023-06-14T08:48:45;3.30;;;1.80;;
26946;SDS011;14501;52.282;10.560;2023-06-14T08:51:11;2.13;;;1.50;;
26946;SDS011;14501;52.282;10.560;2023-06-14T08:53:41;3.45;;;1.60;;
26946;SDS011;14501;52.282;10.560;2023-06-14T08:56:08;2.78;;;2.15;;
26946;SDS011;14501;52.282;10.560;2023-06-14T08:58:38;2.75;;;1.67;;
26946;SDS011;14501;52.282;10.560;2023-06-14T09:01:10;3.55;;;2.08;;
26946;SDS011;14501;52.282;10.560;2023-06-14T09:03:41;1.80;;;1.70;;
26946;SDS011;14501;52.282;10.560;2023-06-14T09:06:07;3.35;;;1.85;;
26946;SDS011;14501;52.282;10.560;2023-06-14T09:08:38;2.95;;;1.90;;
26946;SDS011;14501;52.282;10.560;2023-06-14T09:11:08;3.33;;;1.98;;
26946;SDS011;14501;52.282;10.560;2023-06-14T09:13:39;2.95;;;2.10;;
26946;SDS011;14501;52.282;10.560;2023-06-14T09:16:08;1.92;;;1.73;;
26946;SDS011;14501;52.282;10.560;2023-06-14T09:18:37;5.57;;;1.90;;
26946;SDS011;14501;52.282;10.560;2023-06-14T09:21:06;2.40;;;1.50;;
26946;SDS011;14501;52.282;10.560;2023-06-14T09:23:40;2.10;;;1.90;;
26946;SDS011;14501;52.282;10.560;2023-06-14T09:26:13;3.17;;;1.92;;
26946;SDS011;14501;52.282;10.560;2023-06-14T09:28:41;2.35;;;1.88;;
26946;SDS011;14501;52.282;10.560;2023-06-14T09:31:16;3.05;;;1.92;;
26946;SDS011;14501;52.282;10.560;2023-06-14T09:33:43;3.58;;;2.20;;
26946;SDS011;14501;52.282;10.560;2023-06-14T09:36:31;2.20;;;1.85;;
26946;SDS011;14501;52.282;10.560;2023-06-14T09:38:58;4.95;;;2.35;;
26946;SDS011;14501;52.282;10.560;2023-06-14T09:41:39;7.10;;;2.10;;
26946;SDS011;14501;52.282;10.560;2023-06-14T09:44:06;1.80;;;1.70;;
26946;SDS011;14501;52.282;10.560;2023-06-14T09:46:33;6.00;;;2.10;;
26946;SDS011;14501;52.282;10.560;2023-06-14T09:48:59;5.65;;;2.15;;
26946;SDS011;14501;52.282;10.560;2023-06-14T09:51:26;2.63;;;2.08;;
26946;SDS011;14501;52.282;10.560;2023-06-14T09:53:52;4.78;;;1.90;;
26946;SDS011;14501;52.282;10.560;2023-06-14T09:56:23;3.03;;;1.80;;
26946;SDS011;14501;52.282;10.560;2023-06-14T09:58:54;3.53;;;2.20;;
26946;SDS011;14501;52.282;10.560;2023-06-14T10:01:20;3.15;;;1.85;;
26946;SDS011;14501;52.282;10.560;2023-06-14T10:03:49;2.63;;;1.95;;
26946;SDS011;14501;52.282;10.560;2023-06-14T10:06:18;6.30;;;2.30;;
26946;SDS011;14501;52.282;10.560;2023-06-14T10:08:49;4.45;;;2.13;;
26946;SDS011;14501;52.282;10.560;2023-06-14T10:11:17;2.30;;;1.98;;
26946;SDS011;14501;52.282;10.560;2023-06-14T10:13:43;4.80;;;2.30;;
26946;SDS011;14501;52.282;10.560;2023-06-14T10:16:20;3.35;;;2.20;;
26946;SDS011;14501;52.282;10.560;2023-06-14T10:21:58;8.63;;;2.50;;
26946;SDS011;14501;52.282;10.560;2023-06-14T10:24:41;6.45;;;2.50;;
26946;SDS011;14501;52.282;10.560;2023-06-14T10:27:08;4.60;;;2.30;;
26946;SDS011;14501;52.282;10.560;2023-06-14T10:32:24;3.53;;;2.22;;
26946;SDS011;14501;52.282;10.560;2023-06-14T10:36:24;4.85;;;2.10;;
26946;SDS011;14501;52.282;10.560;2023-06-14T10:39:00;7.15;;;2.70;;
26946;SDS011;14501;52.282;10.560;2023-06-14T10:41:29;4.25;;;2.40;;
26946;SDS011;14501;52.282;10.560;2023-06-14T10:46:40;4.50;;;2.78;;
26946;SDS011;14501;52.282;10.560;2023-06-14T10:49:11;2.87;;;2.10;;
26946;SDS011;14501;52.282;10.560;2023-06-14T10:51:44;5.15;;;2.35;;
26946;SDS011;14501;52.282;10.560;2023-06-14T10:54:22;6.88;;;2.75;;
26946;SDS011;14501;52.282;10.560;2023-06-14T10:56:49;6.45;;;2.88;;
26946;SDS011;14501;52.282;10.560;2023-06-14T10:59:16;7.07;;;2.92;;
26946;SDS011;14501;52.282;10.560;2023-06-14T11:04:31;3.78;;;2.80;;
26946;SDS011;14501;52.282;10.560;2023-06-14T11:07:24;5.05;;;2.83;;
26946;SDS011;14501;52.282;10.560;2023-06-14T11:12:52;6.13;;;2.90;;
26946;SDS011;14501;52.282;10.560;2023-06-14T11:15:19;7.35;;;2.60;;
26946;SDS011;14501;52.282;10.560;2023-06-14T11:17:51;3.92;;;2.42;;
26946;SDS011;14501;52.282;10.560;2023-06-14T11:20:24;4.78;;;3.17;;
26946;SDS011;14501;52.282;10.560;2023-06-14T11:22:51;7.18;;;2.97;;
26946;SDS011;14501;52.282;10.560;2023-06-14T11:25:17;4.32;;;3.30;;
26946;SDS011;14501;52.282;10.560;2023-06-14T11:27:43;11.15;;;2.90;;
26946;SDS011;14501;52.282;10.560;2023-06-14T11:30:09;5.32;;;2.67;;
26946;SDS011;14501;52.282;10.560;2023-06-14T11:32:35;4.50;;;2.70;;
26946;SDS011;14501;52.282;10.560;2023-06-14T11:35:02;5.15;;;3.25;;
26946;SDS011;14501;52.282;10.560;2023-06-14T11:37:29;9.32;;;3.38;;
26946;SDS011;14501;52.282;10.560;2023-06-14T11:39:56;3.55;;;2.78;;
26946;SDS011;14501;52.282;10.560;2023-06-14T11:42:23;6.40;;;2.90;;
26946;SDS011;14501;52.282;10.560;2023-06-14T11:44:49;9.35;;;3.38;;
26946;SDS011;14501;52.282;10.560;2023-06-14T11:47:15;6.88;;;3.10;;
26946;SDS011;14501;52.282;10.560;2023-06-14T11:49:41;9.80;;;3.65;;
26946;SDS011;14501;52.282;10.560;2023-06-14T11:52:07;3.88;;;3.05;;
26946;SDS011;14501;52.282;10.560;2023-06-14T11:54:32;3.85;;;2.85;;
26946;SDS011;14501;52.282;10.560;2023-06-14T11:56:59;6.47;;;3.40;;
26946;SDS011;14501;52.282;10.560;2023-06-14T11:59:25;5.95;;;3.45;;
26946;SDS011;14501;52.282;10.560;2023-06-14T12:01:55;7.10;;;2.83;;
26946;SDS011;14501;52.282;10.560;2023-06-14T12:04:24;5.70;;;3.15;;
26946;SDS011;14501;52.282;10.560;2023-06-14T12:06:52;5.50;;;2.83;;
26946;SDS011;14501;52.282;10.560;2023-06-14T12:09:20;6.53;;;3.00;;
26946;SDS011;14501;52.282;10.560;2023-06-14T12:11:51;4.32;;;2.80;;
26946;SDS011;14501;52.282;10.560;2023-06-14T12:14:29;8.48;;;2.95;;
26946;SDS011;14501;52.282;10.560;2023-06-14T12:17:03;6.63;;;3.58;;
26946;SDS011;14501;52.282;10.560;2023-06-14T12:19:33;4.97;;;2.88;;
26946;SDS011;14501;52.282;10.560;2023-06-14T12:22:08;4.72;;;3.17;;
26946;SDS011;14501;52.282;10.560;2023-06-14T12:24:35;4.15;;;2.80;;
26946;SDS011;14501;52.282;10.560;2023-06-14T12:27:01;4.10;;;2.97;;
26946;SDS011;14501;52.282;10.560;2023-06-14T12:29:30;4.35;;;3.15;;
26946;SDS011;14501;52.282;10.560;2023-06-14T12:31:56;9.20;;;2.80;;
26946;SDS011;14501;52.282;10.560;2023-06-14T12:34:22;5.70;;;3.28;;
26946;SDS011;14501;52.282;10.560;2023-06-14T12:36:55;8.18;;;3.22;;
26946;SDS011;14501;52.282;10.560;2023-06-14T12:39:21;7.22;;;2.97;;
26946;SDS011;14501;52.282;10.560;2023-06-14T12:41:47;6.35;;;3.40;;
26946;SDS011;14501;52.282;10.560;2023-06-14T12:44:13;6.45;;;3.00;;
26946;SDS011;14501;52.282;10.560;2023-06-14T12:46:43;8.98;;;3.00;;
26946;SDS011;14501;52.282;10.560;2023-06-14T12:49:09;4.32;;;2.97;;
26946;SDS011;14501;52.282;10.560;2023-06-14T12:51:36;10.27;;;2.72;;
26946;SDS011;14501;52.282;10.560;2023-06-14T12:54:03;4.28;;;2.80;;
26946;SDS011;14501;52.282;10.560;2023-06-14T12:56:29;9.60;;;3.17;;
26946;SDS011;14501;52.282;10.560;2023-06-14T12:58:54;10.32;;;2.88;;
26946;SDS011;14501;52.282;10.560;2023-06-14T13:01:20;4.78;;;2.80;;
26946;SDS011;14501;52.282;10.560;2023-06-14T13:03:46;4.00;;;3.08;;
26946;SDS011;14501;52.282;10.560;2023-06-14T13:06:12;3.65;;;3.05;;
26946;SDS011;14501;52.282;10.560;2023-06-14T13:08:38;12.70;;;3.28;;
26946;SDS011;14501;52.282;10.560;2023-06-14T13:11:04;5.97;;;2.72;;
26946;SDS011;14501;52.282;10.560;2023-06-14T13:13:29;5.13;;;3.10;;
26946;SDS011;14501;52.282;10.560;2023-06-14T13:15:55;5.70;;;3.47;;
26946;SDS011;14501;52.282;10.560;2023-06-14T13:18:21;6.57;;;3.08;;
26946;SDS011;14501;52.282;10.560;2023-06-14T13:20:46;8.57;;;2.90;;
26946;SDS011;14501;52.282;10.560;2023-06-14T13:23:12;5.18;;;2.80;;
26946;SDS011;14501;52.282;10.560;2023-06-14T13:25:38;6.70;;;3.05;;
26946;SDS011;14501;52.282;10.560;2023-06-14T13:28:04;6.57;;;2.85;;
26946;SDS011;14501;52.282;10.560;2023-06-14T13:30:30;4.53;;;3.13;;
26946;SDS011;14501;52.282;10.560;2023-06-14T13:32:57;6.72;;;2.78;;
26946;SDS011;14501;52.282;10.560;2023-06-14T13:35:23;5.13;;;3.00;;
26946;SDS011;14501;52.282;10.560;2023-06-14T13:37:49;11.48;;;3.30;;
26946;SDS011;14501;52.282;10.560;2023-06-14T13:40:15;8.52;;;2.95;;
26946;SDS011;14501;52.282;10.560;2023-06-14T13:42:41;7.78;;;3.22;;
26946;SDS011;14501;52.282;10.560;2023-06-14T13:45:07;7.18;;;3.15;;
26946;SDS011;14501;52.282;10.560;2023-06-14T13:47:33;7.97;;;3.30;;
26946;SDS011;14501;52.282;10.560;2023-06-14T13:49:59;4.40;;;3.00;;
26946;SDS011;14501;52.282;10.560;2023-06-14T13:52:25;6.45;;;3.20;;
26946;SDS011;14501;52.282;10.560;2023-06-14T13:54:51;4.78;;;2.95;;
26946;SDS011;14501;52.282;10.560;2023-06-14T13:57:17;8.45;;;3.22;;
26946;SDS011;14501;52.282;10.560;2023-06-14T13:59:43;6.78;;;3.13;;
26946;SDS011;14501;52.282;10.560;2023-06-14T14:02:13;7.45;;;3.47;;
26946;SDS011;14501;52.282;10.560;2023-06-14T14:04:39;8.32;;;3.63;;
26946;SDS011;14501;52.282;10.560;2023-06-14T14:07:06;3.90;;;2.85;;
26946;SDS011;14501;52.282;10.560;2023-06-14T14:09:32;3.13;;;2.83;;
26946;SDS011;14501;52.282;10.560;2023-06-14T14:12:02;5.28;;;2.78;;
26946;SDS011;14501;52.282;10.560;2023-06-14T14:14:29;10.18;;;2.88;;
26946;SDS011;14501;52.282;10.560;2023-06-14T14:16:57;8.02;;;3.22;;
26946;SDS011;14501;52.282;10.560;2023-06-14T14:19:23;8.02;;;3.40;;
26946;SDS011;14501;52.282;10.560;2023-06-14T14:21:49;7.82;;;3.22;;
26946;SDS011;14501;52.282;10.560;2023-06-14T14:24:15;6.50;;;2.90;;
26946;SDS011;14501;52.282;10.560;2023-06-14T14:26:41;5.38;;;2.90;;
26946;SDS011;14501;52.282;10.560;2023-06-14T14:29:07;5.95;;;3.05;;
26946;SDS011;14501;52.282;10.560;2023-06-14T14:31:33;6.75;;;3.10;;
26946;SDS011;14501;52.282;10.560;2023-06-14T14:33:59;4.22;;;2.78;;
26946;SDS011;14501;52.282;10.560;2023-06-14T14:36:24;6.13;;;2.80;;
26946;SDS011;14501;52.282;10.560;2023-06-14T14:38:50;5.32;;;3.17;;
26946;SDS011;14501;52.282;10.560;2023-06-14T14:41:18;6.20;;;3.20;;
26946;SDS011;14501;52.282;10.560;2023-06-14T14:43:44;7.57;;;3.28;;
26946;SDS011;14501;52.282;10.560;2023-06-14T14:46:10;10.20;;;3.30;;
26946;SDS011;14501;52.282;10.560;2023-06-14T14:48:35;7.50;;;3.53;;
26946;SDS011;14501;52.282;10.560;2023-06-14T14:51:01;8.57;;;3.20;;
26946;SDS011;14501;52.282;10.560;2023-06-14T14:53:27;12.70;;;3.17;;